Time,TemperatureF,DewpointF,PressureIn,WindDirection,WindDirectionDegrees,WindSpeedMPH,WindSpeedGustMPH,Humidity,HourlyPrecipIn,Conditions,Clouds,dailyrainin,SolarRadiationWatts/m^2,SoftwareType,DateUTC
2013-02-02 00:02:00,26.0,12.0,-100.00,NNW,344,5.0,11.0,56,0.00,,,0.00,0.000000,,2013-02-02 07:02:00,
2013-02-02 00:11:00,26.0,12.0,-100.00,NNW,344,5.0,11.0,56,0.00,,,0.00,0.000000,,2013-02-02 07:11:00,
2013-02-02 00:21:00,26.0,12.0,-100.00,NNW,344,5.0,11.0,56,0.00,,,0.00,0.000000,,2013-02-02 07:21:00,
2013-02-02 00:31:00,26.0,12.0,-100.00,NNW,344,5.0,11.0,56,0.00,,,0.00,0.000000,,2013-02-02 07:31:00,
2013-02-02 00:40:00,27.0,13.0,-100.00,North,358,5.0,9.0,55,0.00,,,0.00,0.000000,,2013-02-02 07:40:00,
2013-02-02 01:01:00,27.0,13.0,-100.00,North,358,5.0,9.0,55,0.00,,,0.00,0.000000,,2013-02-02 08:01:00,
2013-02-02 01:11:00,27.0,13.0,-100.00,North,358,5.0,9.0,55,0.00,,,0.00,0.000000,,2013-02-02 08:11:00,
2013-02-02 01:21:00,27.0,13.0,-100.00,North,358,5.0,9.0,55,0.00,,,0.00,0.000000,,2013-02-02 08:21:00,
2013-02-02 01:31:00,27.0,13.0,-100.00,North,358,5.0,9.0,55,0.00,,,0.00,0.000000,,2013-02-02 08:31:00,
2013-02-02 01:40:00,26.0,14.0,-100.00,NNW,336,6.0,12.0,60,0.00,,,0.00,0.000000,,2013-02-02 08:40:00,
2013-02-02 02:01:00,26.0,14.0,-100.00,NNW,336,6.0,12.0,60,0.00,,,0.00,0.000000,,2013-02-02 09:01:00,
2013-02-02 02:11:00,26.0,14.0,-100.00,NNW,336,6.0,12.0,60,0.00,,,0.00,0.000000,,2013-02-02 09:11:00,
2013-02-02 02:22:00,26.0,14.0,-100.00,NNW,336,6.0,12.0,60,0.00,,,0.00,0.000000,,2013-02-02 09:22:00,
2013-02-02 02:31:00,26.0,14.0,-100.00,NNW,336,6.0,12.0,60,0.00,,,0.00,0.000000,,2013-02-02 09:31:00,
2013-02-02 02:40:00,25.0,13.0,-100.00,North,6,5.0,11.0,61,0.00,,,-99.99,0.000000,,2013-02-02 09:40:00,
2013-02-02 03:01:00,25.0,13.0,-100.00,North,6,5.0,11.0,61,0.00,,,-99.99,0.000000,,2013-02-02 10:01:00,
2013-02-02 03:11:00,25.0,13.0,-100.00,North,6,5.0,11.0,61,0.00,,,-99.99,0.000000,,2013-02-02 10:11:00,
2013-02-02 03:21:00,25.0,13.0,-100.00,North,6,5.0,11.0,61,0.00,,,-99.99,0.000000,,2013-02-02 10:21:00,
2013-02-02 03:31:00,25.0,13.0,-100.00,North,6,5.0,11.0,61,0.00,,,-99.99,0.000000,,2013-02-02 10:31:00,
2013-02-02 04:01:00,25.0,13.0,-100.00,North,357,5.0,8.0,60,0.00,,,0.00,0.000000,,2013-02-02 11:01:00,
2013-02-02 04:11:00,25.0,13.0,-100.00,North,357,5.0,8.0,60,0.00,,,0.00,0.000000,,2013-02-02 11:11:00,
2013-02-02 04:21:00,25.0,13.0,-100.00,North,357,5.0,8.0,60,0.00,,,0.00,0.000000,,2013-02-02 11:21:00,
2013-02-02 04:31:00,25.0,13.0,-100.00,North,357,5.0,8.0,60,0.00,,,0.00,0.000000,,2013-02-02 11:31:00,
2013-02-02 05:01:00,26.0,12.0,-100.00,NNW,343,6.0,9.0,56,-99.99,,,-99.99,0.000000,,2013-02-02 12:01:00,
2013-02-02 05:11:00,26.0,12.0,-100.00,NNW,343,6.0,9.0,56,-99.99,,,-99.99,0.000000,,2013-02-02 12:11:00,
2013-02-02 06:02:00,28.0,9.0,-100.00,NW,321,9.0,13.0,45,-99.99,,,-99.99,0.000000,,2013-02-02 13:02:00,
2013-02-02 07:02:00,29.0,8.0,-100.00,NW,324,8.0,14.0,41,-99.99,,,0.00,0.000000,,2013-02-02 14:02:00,
2013-02-02 08:03:00,28.0,7.0,-100.00,NW,317,8.0,14.0,41,-99.99,,,0.00,6.000000,,2013-02-02 15:03:00,
2013-02-02 09:02:00,33.0,6.0,-100.00,NW,316,8.0,13.0,32,-99.99,,,0.00,83.000000,,2013-02-02 16:02:00,
2013-02-02 09:31:00,33.0,6.0,-100.00,NW,316,8.0,13.0,32,-99.99,,,0.00,83.000000,,2013-02-02 16:31:00,
2013-02-02 10:02:00,38.0,4.0,-100.00,NW,320,5.0,13.0,24,0.00,,,0.00,305.000000,,2013-02-02 17:02:00,
2013-02-02 10:31:00,38.0,4.0,-100.00,NW,320,5.0,13.0,24,0.00,,,0.00,305.000000,,2013-02-02 17:31:00,
2013-02-02 11:02:00,40.0,4.0,-100.00,NW,324,7.0,12.0,22,0.00,,,0.00,474.000000,,2013-02-02 18:02:00,
2013-02-02 12:02:00,40.0,5.0,-100.00,NW,315,9.0,14.0,23,0.00,,,0.00,633.000000,,2013-02-02 19:02:00,
2013-02-02 13:01:00,42.0,9.0,-100.00,NW,308,6.0,14.0,25,0.00,,,0.00,687.000000,,2013-02-02 20:01:00,
2013-02-02 13:11:00,42.0,9.0,-100.00,NW,308,6.0,14.0,25,0.00,,,0.00,687.000000,,2013-02-02 20:11:00,
2013-02-02 13:21:00,42.0,9.0,-100.00,NW,308,6.0,14.0,25,0.00,,,0.00,687.000000,,2013-02-02 20:21:00,
2013-02-02 13:40:00,40.0,17.0,-100.00,NW,306,6.0,9.0,39,0.00,,,0.00,643.000000,,2013-02-02 20:40:00,
2013-02-02 14:02:00,40.0,17.0,-100.00,NW,306,6.0,9.0,39,0.00,,,0.00,643.000000,,2013-02-02 21:02:00,
2013-02-02 14:11:00,40.0,17.0,-100.00,NW,306,6.0,9.0,39,0.00,,,0.00,643.000000,,2013-02-02 21:11:00,
2013-02-02 14:21:00,40.0,17.0,-100.00,NW,306,6.0,9.0,39,0.00,,,0.00,643.000000,,2013-02-02 21:21:00,
2013-02-02 14:32:00,40.0,17.0,-100.00,NW,306,6.0,9.0,39,0.00,,,0.00,643.000000,,2013-02-02 21:32:00,
2013-02-02 14:40:00,39.0,14.0,-100.00,NW,304,5.0,9.0,36,0.00,,,0.00,513.000000,,2013-02-02 21:40:00,
2013-02-02 15:02:00,39.0,14.0,-100.00,NW,304,5.0,9.0,36,0.00,,,0.00,513.000000,,2013-02-02 22:02:00,
2013-02-02 15:11:00,39.0,14.0,-100.00,NW,304,5.0,9.0,36,0.00,,,0.00,513.000000,,2013-02-02 22:11:00,
2013-02-02 15:21:00,39.0,14.0,-100.00,NW,304,5.0,9.0,36,0.00,,,0.00,513.000000,,2013-02-02 22:21:00,
2013-02-02 15:32:00,39.0,14.0,-100.00,NW,304,5.0,9.0,36,0.00,,,0.00,513.000000,,2013-02-02 22:32:00,
2013-02-02 15:40:00,39.0,20.0,-100.00,WNW,298,4.0,8.0,46,0.00,,,0.00,404.000000,,2013-02-02 22:40:00,
2013-02-02 16:01:00,39.0,20.0,-100.00,WNW,298,4.0,8.0,46,0.00,,,0.00,404.000000,,2013-02-02 23:01:00,
2013-02-02 16:11:00,39.0,20.0,-100.00,WNW,298,4.0,8.0,46,0.00,,,0.00,404.000000,,2013-02-02 23:11:00,
2013-02-02 16:21:00,39.0,20.0,-100.00,WNW,298,4.0,8.0,46,0.00,,,0.00,404.000000,,2013-02-02 23:21:00,
2013-02-02 16:32:00,39.0,20.0,-100.00,WNW,298,4.0,8.0,46,0.00,,,0.00,404.000000,,2013-02-02 23:32:00,
2013-02-02 16:40:00,38.0,22.0,-100.00,West,276,2.0,8.0,53,0.00,,,0.00,298.000000,,2013-02-02 23:40:00,
2013-02-02 17:01:00,38.0,22.0,-100.00,West,276,2.0,8.0,53,0.00,,,0.00,298.000000,,2013-02-03 00:01:00,
2013-02-02 17:11:00,38.0,22.0,-100.00,West,276,2.0,8.0,53,0.00,,,0.00,298.000000,,2013-02-03 00:11:00,
2013-02-02 17:21:00,38.0,22.0,-100.00,West,276,2.0,8.0,53,0.00,,,0.00,298.000000,,2013-02-03 00:21:00,
2013-02-02 17:31:00,38.0,22.0,-100.00,West,276,2.0,8.0,53,0.00,,,0.00,298.000000,,2013-02-03 00:31:00,
2013-02-02 17:40:00,31.0,19.0,-100.00,North,355,2.0,7.0,61,0.00,,,0.00,64.000000,,2013-02-03 00:40:00,
2013-02-02 18:02:00,31.0,19.0,-100.00,North,355,2.0,7.0,61,0.00,,,0.00,64.000000,,2013-02-03 01:02:00,
2013-02-02 18:11:00,31.0,19.0,-100.00,North,355,2.0,7.0,61,0.00,,,0.00,64.000000,,2013-02-03 01:11:00,
2013-02-02 18:21:00,31.0,19.0,-100.00,North,355,2.0,7.0,61,0.00,,,0.00,64.000000,,2013-02-03 01:21:00,
2013-02-02 18:32:00,31.0,19.0,-100.00,North,355,2.0,7.0,61,0.00,,,0.00,64.000000,,2013-02-03 01:32:00,
2013-02-02 18:40:00,31.0,17.0,-100.00,NNW,336,4.0,6.0,55,0.00,,,0.00,0.000000,,2013-02-03 01:40:00,
2013-02-02 19:01:00,31.0,17.0,-100.00,NNW,336,4.0,6.0,55,0.00,,,0.00,0.000000,,2013-02-03 02:01:00,
2013-02-02 19:11:00,31.0,17.0,-100.00,NNW,336,4.0,6.0,55,0.00,,,0.00,0.000000,,2013-02-03 02:11:00,
2013-02-02 19:21:00,31.0,17.0,-100.00,NNW,336,4.0,6.0,55,0.00,,,0.00,0.000000,,2013-02-03 02:21:00,
2013-02-02 19:31:00,31.0,17.0,-100.00,NNW,336,4.0,6.0,55,0.00,,,0.00,0.000000,,2013-02-03 02:31:00,
2013-02-02 19:40:00,30.0,14.0,-100.00,North,350,5.0,6.0,51,0.00,,,0.00,0.000000,,2013-02-03 02:40:00,
2013-02-02 20:02:00,30.0,14.0,-100.00,North,350,5.0,6.0,51,0.00,,,0.00,0.000000,,2013-02-03 03:02:00,
2013-02-02 20:11:00,30.0,14.0,-100.00,North,350,5.0,6.0,51,0.00,,,0.00,0.000000,,2013-02-03 03:11:00,
2013-02-02 20:21:00,30.0,14.0,-100.00,North,350,5.0,6.0,51,0.00,,,0.00,0.000000,,2013-02-03 03:21:00,
2013-02-02 20:31:00,30.0,14.0,-100.00,North,350,5.0,6.0,51,0.00,,,0.00,0.000000,,2013-02-03 03:31:00,
2013-02-02 20:40:00,31.0,15.0,-100.00,North,11,2.0,6.0,50,0.00,,,0.00,0.000000,,2013-02-03 03:40:00,
2013-02-02 21:01:00,31.0,15.0,-100.00,North,11,2.0,6.0,50,0.00,,,0.00,0.000000,,2013-02-03 04:01:00,
2013-02-02 21:11:00,31.0,15.0,-100.00,North,11,2.0,6.0,50,0.00,,,0.00,0.000000,,2013-02-03 04:11:00,
2013-02-02 21:21:00,31.0,15.0,-100.00,North,11,2.0,6.0,50,0.00,,,0.00,0.000000,,2013-02-03 04:21:00,
2013-02-02 21:31:00,31.0,15.0,-100.00,North,11,2.0,6.0,50,0.00,,,0.00,0.000000,,2013-02-03 04:31:00,
2013-02-02 21:40:00,29.0,14.0,-100.00,SE,135,2.0,5.0,53,0.00,,,0.00,0.000000,,2013-02-03 04:40:00,
2013-02-02 22:03:00,29.0,14.0,-100.00,SE,135,2.0,5.0,53,0.00,,,0.00,0.000000,,2013-02-03 05:03:00,
2013-02-02 22:11:00,29.0,14.0,-100.00,SE,135,2.0,5.0,53,0.00,,,0.00,0.000000,,2013-02-03 05:11:00,
2013-02-02 22:22:00,29.0,14.0,-100.00,SE,135,2.0,5.0,53,0.00,,,0.00,0.000000,,2013-02-03 05:22:00,
2013-02-02 22:32:00,29.0,14.0,-100.00,SE,135,2.0,5.0,53,0.00,,,0.00,0.000000,,2013-02-03 05:32:00,
2013-02-02 22:40:00,30.0,19.0,-100.00,SE,133,3.0,4.0,62,0.00,,,0.00,0.000000,,2013-02-03 05:40:00,
2013-02-02 23:02:00,30.0,19.0,-100.00,SE,133,3.0,4.0,62,0.00,,,0.00,0.000000,,2013-02-03 06:02:00,
2013-02-02 23:11:00,30.0,19.0,-100.00,SE,133,3.0,4.0,62,0.00,,,0.00,0.000000,,2013-02-03 06:11:00,
2013-02-02 23:21:00,30.0,19.0,-100.00,SE,133,3.0,4.0,62,0.00,,,0.00,0.000000,,2013-02-03 06:21:00,
2013-02-02 23:31:00,30.0,19.0,-100.00,SE,133,3.0,4.0,62,0.00,,,0.00,0.000000,,2013-02-03 06:31:00,
2013-02-02 23:40:00,29.0,19.0,-100.00,SE,133,3.0,4.0,66,0.00,,,0.00,0.000000,,2013-02-03 06:40:00,